createdAt,value
2023-01-08T00:00:17.171Z,5.80
2023-01-08T00:05:19.359Z,5.53
2023-01-08T00:10:21.492Z,8.05
2023-01-08T00:15:23.908Z,5.53
2023-01-08T00:20:26.307Z,10.32
2023-01-08T00:25:28.399Z,9.82
2023-01-08T00:30:30.780Z,10.20
2023-01-08T00:35:32.978Z,9.20
2023-01-08T00:40:35.799Z,11.82
2023-01-08T00:45:37.887Z,8.30
2023-01-08T00:50:39.969Z,8.52
2023-01-08T00:55:42.077Z,7.40
2023-01-08T01:00:44.148Z,6.80
2023-01-08T01:05:46.389Z,7.60
2023-01-08T01:10:48.553Z,8.63
2023-01-08T01:16:03.488Z,8.85
2023-01-08T01:21:13.670Z,9.27
2023-01-08T01:31:22.364Z,7.38
2023-01-08T01:36:24.990Z,13.27
2023-01-08T01:41:27.055Z,7.43
2023-01-08T01:46:48.465Z,12.05
2023-01-08T01:51:55.061Z,7.53
2023-01-08T01:56:59.704Z,8.45
2023-01-08T02:02:02.304Z,8.85
2023-01-08T02:07:16.079Z,10.13
2023-01-08T02:12:35.524Z,6.38
2023-01-08T02:18:00.149Z,6.43
2023-01-08T02:23:02.123Z,3.90
2023-01-08T02:28:10.756Z,8.27
2023-01-08T02:33:12.889Z,8.23
2023-01-08T02:38:17.960Z,8.10
2023-01-08T02:43:41.762Z,14.45
2023-01-08T02:48:47.852Z,8.30
2023-01-08T02:53:53.612Z,6.43
2023-01-08T02:58:58.475Z,7.68
2023-01-08T03:04:12.912Z,6.30
2023-01-08T03:09:16.871Z,8.27
2023-01-08T03:14:44.136Z,6.72
2023-01-08T03:19:54.374Z,10.38
2023-01-08T03:24:59.291Z,4.13
2023-01-08T03:30:03.522Z,5.53
2023-01-08T03:35:10.851Z,5.00
2023-01-08T03:40:37.262Z,4.50
2023-01-08T03:45:44.508Z,6.13
2023-01-08T03:50:46.948Z,6.90
2023-01-08T03:55:49.029Z,2.60
2023-01-08T04:00:51.082Z,4.45
2023-01-08T04:05:53.185Z,2.53
2023-01-08T04:10:55.411Z,3.08
2023-01-08T04:15:58.365Z,2.70
2023-01-08T04:21:00.569Z,3.28
2023-01-08T04:26:06.795Z,4.47
2023-01-08T04:31:10.602Z,4.47
2023-01-08T04:36:12.826Z,2.85
2023-01-08T04:41:14.885Z,3.15
2023-01-08T04:46:17.010Z,5.63
2023-01-08T04:51:19.350Z,2.35
2023-01-08T04:56:21.470Z,2.00
2023-01-08T05:01:25.896Z,2.03
2023-01-08T05:06:30.239Z,6.07
2023-01-08T05:11:32.522Z,2.20
2023-01-08T05:16:34.703Z,1.20
2023-01-08T05:21:36.949Z,3.22
2023-01-08T05:26:39.102Z,3.53
2023-01-08T05:31:41.240Z,2.33
2023-01-08T05:36:43.477Z,4.65
2023-01-08T05:41:45.548Z,3.80
2023-01-08T05:46:47.637Z,2.22
2023-01-08T05:51:50.591Z,2.78
2023-01-08T05:56:52.695Z,2.35
2023-01-08T06:01:54.823Z,5.45
2023-01-08T06:06:56.937Z,4.32
2023-01-08T06:11:59.051Z,6.43
2023-01-08T06:17:01.164Z,4.72
2023-01-08T06:22:03.168Z,3.78
2023-01-08T06:27:05.289Z,6.55
2023-01-08T06:32:07.437Z,7.35
2023-01-08T06:37:09.556Z,6.60
2023-01-08T06:42:11.715Z,8.63
2023-01-08T06:47:13.850Z,7.03
2023-01-08T06:52:15.930Z,5.45
2023-01-08T06:57:18.017Z,8.90
2023-01-08T07:02:20.385Z,8.25
2023-01-08T07:07:22.685Z,8.13
2023-01-08T07:12:25.040Z,7.90
2023-01-08T07:17:27.215Z,7.65
2023-01-08T07:22:29.396Z,6.20
2023-01-08T07:27:31.455Z,7.93
2023-01-08T07:32:33.591Z,10.63
2023-01-08T07:37:40.160Z,4.03
2023-01-08T07:42:42.163Z,11.23
2023-01-08T07:47:44.321Z,11.75
2023-01-08T07:52:46.518Z,6.35
2023-01-08T07:57:48.654Z,9.75
2023-01-08T08:02:50.930Z,7.57
2023-01-08T08:07:53.147Z,10.63
2023-01-08T08:12:55.280Z,8.77
2023-01-08T08:17:57.636Z,6.80
2023-01-08T08:23:04.687Z,8.82
2023-01-08T08:28:07.489Z,10.88
2023-01-08T08:33:10.100Z,11.52
2023-01-08T08:38:12.154Z,9.48
2023-01-08T08:43:14.298Z,9.48
2023-01-08T08:48:17.027Z,15.15
2023-01-08T08:53:19.159Z,11.80
2023-01-08T08:58:21.249Z,11.27
2023-01-08T09:03:23.428Z,11.90
2023-01-08T09:08:25.553Z,13.30
2023-01-08T09:13:27.725Z,11.77
2023-01-08T09:18:29.857Z,12.93
2023-01-08T09:28:33.997Z,14.65
2023-01-08T09:33:36.112Z,13.98
2023-01-08T09:38:38.204Z,16.80
2023-01-08T09:43:45.267Z,12.45
2023-01-08T09:48:48.232Z,13.13
2023-01-08T09:53:55.750Z,12.98
2023-01-08T09:59:03.587Z,9.48
2023-01-08T10:04:18.982Z,13.88
2023-01-08T10:09:29.129Z,10.32
2023-01-08T10:14:37.796Z,15.45
2023-01-08T10:19:39.874Z,15.75
2023-01-08T10:24:43.314Z,10.63
2023-01-08T10:29:45.773Z,17.75
2023-01-08T10:34:51.937Z,12.38
2023-01-08T10:40:29.708Z,18.25
2023-01-08T10:45:32.845Z,15.32
2023-01-08T10:50:35.565Z,14.10
2023-01-08T10:55:39.181Z,12.70
2023-01-08T11:00:41.730Z,14.50
2023-01-08T11:05:44.116Z,14.98
2023-01-08T11:11:00.518Z,11.93
2023-01-08T11:16:06.838Z,12.88
2023-01-08T11:21:18.291Z,13.20
2023-01-08T11:26:23.172Z,12.70
2023-01-08T11:31:46.415Z,14.13
2023-01-08T11:36:59.381Z,15.93
2023-01-08T11:42:10.950Z,12.02
2023-01-08T11:47:44.754Z,18.40
2023-01-08T11:53:16.873Z,17.23
2023-01-08T11:59:00.831Z,17.08
2023-01-08T12:04:23.544Z,17.65
2023-01-08T12:09:28.257Z,16.30
2023-01-08T12:14:45.121Z,18.95
2023-01-08T12:20:08.300Z,20.17
2023-01-08T12:25:28.822Z,15.90
2023-01-08T12:30:40.023Z,10.87
2023-01-08T12:40:58.234Z,14.90
2023-01-08T12:46:02.605Z,16.67
2023-01-08T12:51:04.703Z,17.15
2023-01-08T12:56:13.777Z,15.10
2023-01-08T13:01:31.147Z,17.52
2023-01-08T13:06:33.422Z,18.80
2023-01-08T13:11:38.617Z,20.38
2023-01-08T13:16:44.699Z,15.35
2023-01-08T13:21:52.896Z,14.07
2023-01-08T13:27:09.477Z,16.05
2023-01-08T13:32:38.485Z,19.35
2023-01-08T13:37:41.382Z,15.85
2023-01-08T13:42:43.466Z,14.23
2023-01-08T13:47:46.882Z,16.45
2023-01-08T13:52:56.806Z,13.02
2023-01-08T13:58:02.969Z,13.77
2023-01-08T14:03:05.102Z,18.60
2023-01-08T14:08:21.992Z,15.07
2023-01-08T14:13:29.208Z,12.90
2023-01-08T14:18:31.976Z,15.65
2023-01-08T14:23:41.105Z,16.63
2023-01-08T14:28:51.942Z,10.65
2023-01-08T14:33:59.449Z,14.52
2023-01-08T14:39:01.544Z,18.75
2023-01-08T14:44:03.769Z,14.18
2023-01-08T14:49:05.867Z,11.57
2023-01-08T14:54:09.614Z,18.77
2023-01-08T14:59:12.289Z,21.42
2023-01-08T15:04:20.477Z,14.75
2023-01-08T15:09:28.569Z,16.25
2023-01-08T15:14:31.345Z,13.38
2023-01-08T15:19:40.276Z,15.55
2023-01-08T15:24:44.720Z,16.08
2023-01-08T15:29:53.796Z,15.80
2023-01-08T15:34:55.889Z,15.05
2023-01-08T15:39:58.022Z,11.05
2023-01-08T15:45:00.597Z,14.13
2023-01-08T15:50:02.651Z,20.13
2023-01-08T15:55:06.352Z,11.55
2023-01-08T16:00:13.520Z,12.48
2023-01-08T16:05:20.383Z,16.40
2023-01-08T16:10:22.549Z,14.70
2023-01-08T16:15:24.662Z,13.88
2023-01-08T16:20:27.142Z,16.55
2023-01-08T16:25:29.322Z,15.70
2023-01-08T16:30:31.480Z,13.88
2023-01-08T16:35:33.600Z,14.55
2023-01-08T16:40:36.532Z,16.45
2023-01-08T16:45:45.500Z,19.25
2023-01-08T16:50:48.864Z,17.70
2023-01-08T16:55:50.971Z,16.33
2023-01-08T17:00:53.099Z,16.40
2023-01-08T17:06:00.230Z,16.67
2023-01-08T17:11:07.236Z,17.60
2023-01-08T17:16:11.634Z,19.42
2023-01-08T17:21:14.746Z,18.38
2023-01-08T17:26:18.057Z,16.55
2023-01-08T17:31:20.808Z,17.00
2023-01-08T17:36:26.005Z,20.58
2023-01-08T17:41:46.642Z,19.05
2023-01-08T17:46:49.266Z,18.17
2023-01-08T17:51:53.508Z,16.92
2023-01-08T17:56:55.656Z,15.27
2023-01-08T18:02:00.628Z,19.90
2023-01-08T18:07:03.144Z,16.63
2023-01-08T18:12:05.428Z,19.02
2023-01-08T18:17:07.523Z,23.15
2023-01-08T18:22:09.721Z,19.90
2023-01-08T18:27:11.818Z,21.05
2023-01-08T18:32:13.892Z,18.70
2023-01-08T18:37:15.955Z,21.70
2023-01-08T18:42:27.269Z,24.02
2023-01-08T18:47:29.522Z,79.65
2023-01-08T18:52:31.683Z,36.85
2023-01-08T18:57:33.777Z,34.53
2023-01-08T19:02:35.904Z,24.83
2023-01-08T19:07:38.379Z,19.63
2023-01-08T19:12:40.530Z,22.58
2023-01-08T19:17:42.746Z,16.60
2023-01-08T19:22:44.799Z,23.05
2023-01-08T19:27:47.075Z,22.17
2023-01-08T19:32:49.223Z,23.00
2023-01-08T19:37:51.427Z,25.20
2023-01-08T19:43:11.883Z,19.08
2023-01-08T19:48:14.117Z,17.75
2023-01-08T19:53:16.287Z,23.33
2023-01-08T19:58:19.551Z,19.58
2023-01-08T20:03:24.196Z,19.10
2023-01-08T20:08:26.317Z,21.13
2023-01-08T20:13:28.437Z,14.27
2023-01-08T20:18:31.083Z,15.27
2023-01-08T20:23:35.938Z,13.85
2023-01-08T20:28:39.488Z,16.02
2023-01-08T20:33:42.507Z,18.55
2023-01-08T20:38:45.226Z,21.73
2023-01-08T20:43:47.856Z,14.30
2023-01-08T20:48:49.934Z,15.38
2023-01-08T20:53:52.144Z,16.60
2023-01-08T20:58:54.709Z,15.48
2023-01-08T21:03:58.307Z,14.25
2023-01-08T21:09:06.741Z,12.27
2023-01-08T21:14:10.511Z,10.98
2023-01-08T21:19:14.785Z,8.60
2023-01-08T21:24:17.317Z,11.13
2023-01-08T21:29:20.956Z,9.30
2023-01-08T21:34:23.086Z,10.27
2023-01-08T21:39:25.782Z,13.77
2023-01-08T21:44:46.882Z,12.35
2023-01-08T21:49:49.419Z,9.07
2023-01-08T21:54:52.279Z,8.50
2023-01-08T21:59:54.862Z,13.43
2023-01-08T22:04:57.856Z,11.70
2023-01-08T22:10:00.771Z,12.05
2023-01-08T22:15:02.886Z,9.95
2023-01-08T22:20:08.149Z,11.45
2023-01-08T22:25:10.245Z,9.25
2023-01-08T22:30:12.509Z,10.60
2023-01-08T22:35:14.796Z,6.88
2023-01-08T22:40:17.121Z,12.00
2023-01-08T22:45:19.242Z,11.32
2023-01-08T22:50:21.378Z,11.18
2023-01-08T22:55:24.394Z,12.10
2023-01-08T23:00:26.492Z,8.75
2023-01-08T23:05:28.609Z,8.68
2023-01-08T23:10:31.053Z,6.43
2023-01-08T23:15:33.186Z,10.98
2023-01-08T23:20:35.266Z,13.05
2023-01-08T23:25:37.446Z,4.07
2023-01-08T23:30:41.175Z,10.55
2023-01-08T23:35:43.342Z,17.20
2023-01-08T23:40:45.977Z,10.00
2023-01-08T23:45:48.106Z,11.23
2023-01-08T23:50:50.302Z,10.60
2023-01-08T23:55:52.597Z,14.57
